Time;durP1;ratioP1;P1;durP2;ratioP2;P2;SDS_P1;SDS_P2;PMS_P1;PMS_P2;Temp;Humidity;BMP_temperature;BMP_pressure;BME280_temperature;BME280_humidity;BME280_pressure;Samples;Min_cycle;Max_cycle;Signal;HPM_P1;HPM_P2
2023/10/21 00:01:52;;;;;;;11.73;5.80;;;10.50;99.90;;;;;;5075826;28;20036;-75
2023/10/21 00:04:17;;;;;;;12.52;5.90;;;10.50;99.90;;;;;;5075640;28;20033;-75
2023/10/21 00:06:43;;;;;;;16.20;6.15;;;10.60;99.90;;;;;;5075190;28;20035;-75
2023/10/21 00:09:08;;;;;;;18.15;6.20;;;10.60;99.90;;;;;;5075249;28;20021;-75
2023/10/21 00:11:34;;;;;;;16.80;6.30;;;10.60;99.90;;;;;;5075642;28;20033;-76
2023/10/21 00:13:59;;;;;;;14.45;5.72;;;10.70;99.90;;;;;;5075546;28;20339;-75
2023/10/21 00:16:25;;;;;;;8.38;6.18;;;10.70;99.90;;;;;;5074893;28;20442;-75
2023/10/21 00:18:50;;;;;;;13.70;6.93;;;10.70;99.90;;;;;;5074908;28;20367;-76
2023/10/21 00:21:16;;;;;;;11.20;6.03;;;10.70;99.90;;;;;;5075456;28;20024;-75
2023/10/21 00:23:41;;;;;;;13.32;6.68;;;10.70;99.90;;;;;;5075406;28;20361;-76
2023/10/21 00:26:07;;;;;;;9.75;5.90;;;10.70;99.90;;;;;;5075356;28;20032;-75
2023/10/21 00:28:32;;;;;;;11.77;6.72;;;10.70;99.90;;;;;;5075136;28;20025;-75
2023/10/21 00:31:02;;;;;;;8.95;5.53;;;10.60;99.90;;;;;;5075241;28;20045;-75
2023/10/21 00:33:28;;;;;;;12.77;6.35;;;10.60;99.90;;;;;;5075151;28;20028;-75
2023/10/21 00:35:53;;;;;;;12.30;6.75;;;10.60;99.90;;;;;;5075160;28;20439;-75
2023/10/21 00:38:19;;;;;;;16.83;6.78;;;10.60;99.90;;;;;;5074627;28;20125;-75
2023/10/21 00:40:53;;;;;;;11.77;6.43;;;10.60;99.90;;;;;;5074766;28;20115;-75
2023/10/21 00:43:36;;;;;;;12.57;6.15;;;10.60;99.90;;;;;;5074248;28;20119;-75
2023/10/21 00:46:05;;;;;;;15.43;6.43;;;10.70;99.90;;;;;;5074995;28;20037;-75
2023/10/21 00:48:32;;;;;;;18.98;7.07;;;10.70;99.90;;;;;;5073668;28;20016;-75
2023/10/21 00:50:58;;;;;;;16.48;6.25;;;10.80;99.90;;;;;;5074242;28;20107;-76
2023/10/21 00:53:23;;;;;;;11.30;6.25;;;10.90;99.90;;;;;;5074869;28;20339;-75
2023/10/21 00:55:51;;;;;;;9.55;5.88;;;10.90;99.90;;;;;;5074755;28;20043;-75
2023/10/21 00:58:17;;;;;;;10.25;5.47;;;10.90;99.90;;;;;;5074568;28;20360;-75
2023/10/21 01:00:43;;;;;;;12.48;6.53;;;10.90;99.90;;;;;;5074693;28;20521;-75
2023/10/21 01:03:09;;;;;;;12.40;5.75;;;10.90;99.90;;;;;;5073882;28;20033;-75
2023/10/21 01:05:34;;;;;;;9.05;6.07;;;10.90;99.90;;;;;;5074126;28;20070;-75
2023/10/21 01:08:00;;;;;;;9.40;5.97;;;10.90;99.90;;;;;;5074115;28;20036;-75
2023/10/21 01:10:26;;;;;;;12.18;6.40;;;10.90;99.90;;;;;;5074368;28;20025;-75
2023/10/21 01:12:51;;;;;;;10.07;5.85;;;11.00;99.90;;;;;;5074340;28;20425;-75
2023/10/21 01:15:17;;;;;;;9.13;5.78;;;11.00;99.90;;;;;;5074360;28;20425;-76
2023/10/21 01:17:49;;;;;;;10.70;5.72;;;11.10;99.90;;;;;;5074477;28;20374;-75
2023/10/21 01:20:16;;;;;;;7.53;5.65;;;11.00;99.90;;;;;;5074102;28;20033;-75
2023/10/21 01:22:42;;;;;;;17.50;5.78;;;11.00;99.90;;;;;;5074065;28;20021;-75
2023/10/21 01:25:08;;;;;;;9.95;5.82;;;11.00;99.90;;;;;;5074470;28;20043;-75
2023/10/21 01:27:34;;;;;;;13.13;5.53;;;11.00;99.90;;;;;;5074598;28;20024;-75
2023/10/21 01:30:00;;;;;;;12.13;5.50;;;11.10;99.90;;;;;;5073889;28;20024;-75
2023/10/21 01:32:25;;;;;;;14.15;5.82;;;11.10;99.90;;;;;;5074037;28;20025;-75
2023/10/21 01:34:51;;;;;;;10.77;5.15;;;11.20;99.90;;;;;;5073940;28;20103;-75
2023/10/21 01:37:17;;;;;;;6.57;4.65;;;11.20;99.90;;;;;;5074782;28;20357;-75
2023/10/21 01:39:42;;;;;;;13.18;4.90;;;11.20;99.90;;;;;;5074495;28;20030;-75
2023/10/21 01:42:08;;;;;;;8.10;5.00;;;11.20;99.90;;;;;;5073918;28;20056;-75
2023/10/21 01:44:35;;;;;;;9.60;4.97;;;11.20;99.90;;;;;;5073577;28;20406;-75
2023/10/21 01:47:00;;;;;;;9.15;5.18;;;11.20;99.90;;;;;;5074530;28;20027;-75
2023/10/21 01:49:26;;;;;;;14.02;4.95;;;11.20;99.90;;;;;;5074954;28;20107;-75
2023/10/21 01:51:51;;;;;;;10.07;4.60;;;11.20;99.90;;;;;;5077792;28;20031;-74
2023/10/21 01:54:17;;;;;;;12.63;4.80;;;11.20;99.90;;;;;;5077688;28;20056;-75
2023/10/21 01:56:42;;;;;;;8.63;5.68;;;11.20;99.90;;;;;;5078030;28;20024;-75
2023/10/21 01:59:08;;;;;;;8.82;4.82;;;11.30;99.90;;;;;;5078014;28;20036;-75
2023/10/21 02:01:34;;;;;;;11.43;5.63;;;11.40;99.90;;;;;;5077637;28;20040;-75
2023/10/21 02:04:00;;;;;;;9.68;5.03;;;11.40;99.90;;;;;;5078248;28;20024;-75
2023/10/21 02:06:26;;;;;;;11.57;5.80;;;11.50;99.90;;;;;;5077448;28;20486;-75
2023/10/21 02:08:53;;;;;;;12.10;5.05;;;11.50;99.90;;;;;;5077214;28;20035;-75
2023/10/21 02:11:21;;;;;;;9.30;5.95;;;11.50;99.90;;;;;;5074428;28;20122;-75
2023/10/21 02:13:47;;;;;;;8.13;4.93;;;11.60;99.90;;;;;;5073676;28;20368;-75
2023/10/21 02:16:13;;;;;;;8.45;5.18;;;11.60;99.90;;;;;;5074275;28;20020;-75
2023/10/21 02:18:38;;;;;;;8.20;5.45;;;11.60;99.90;;;;;;5074003;28;20131;-75
2023/10/21 02:21:05;;;;;;;11.35;5.70;;;11.60;99.90;;;;;;5073848;28;20024;-75
2023/10/21 02:23:31;;;;;;;10.43;5.43;;;11.70;99.90;;;;;;5073912;28;20512;-75
2023/10/21 02:26:03;;;;;;;12.07;5.60;;;11.60;99.90;;;;;;5073434;28;20028;-75
2023/10/21 02:28:29;;;;;;;10.48;5.90;;;11.70;99.90;;;;;;5077879;28;20094;-75
2023/10/21 02:30:55;;;;;;;8.98;5.47;;;11.70;99.90;;;;;;5077810;28;20422;-75
2023/10/21 02:33:21;;;;;;;8.55;5.20;;;11.70;99.90;;;;;;5077397;28;20415;-75
2023/10/21 02:35:51;;;;;;;9.60;6.00;;;11.70;99.90;;;;;;5077504;28;20454;-75
2023/10/21 02:38:16;;;;;;;10.68;5.45;;;11.70;99.90;;;;;;5077691;28;20033;-75
2023/10/21 02:40:42;;;;;;;10.68;5.93;;;11.70;99.90;;;;;;5077282;28;20031;-75
2023/10/21 02:43:09;;;;;;;13.60;5.47;;;11.70;99.90;;;;;;5076694;28;20021;-75
2023/10/21 02:45:35;;;;;;;10.43;5.95;;;11.70;99.90;;;;;;5077213;28;20075;-76
2023/10/21 02:48:00;;;;;;;7.95;5.78;;;11.70;99.90;;;;;;5077378;28;20125;-76
2023/10/21 02:50:26;;;;;;;10.73;5.72;;;11.70;99.90;;;;;;5076763;28;20028;-75
2023/10/21 02:52:52;;;;;;;8.90;5.60;;;11.70;99.90;;;;;;5077403;28;20115;-76
2023/10/21 02:55:18;;;;;;;11.02;5.50;;;11.70;99.90;;;;;;5076987;28;20025;-75
2023/10/21 02:57:44;;;;;;;8.77;5.85;;;11.70;99.90;;;;;;5077065;28;20024;-75
2023/10/21 03:00:15;;;;;;;9.45;5.43;;;11.70;99.90;;;;;;5076269;28;20032;-75
2023/10/21 03:02:42;;;;;;;7.85;6.13;;;11.70;99.90;;;;;;5076328;28;20025;-75
2023/10/21 03:05:07;;;;;;;6.90;5.70;;;11.70;99.90;;;;;;5076500;28;20032;-76
2023/10/21 03:07:33;;;;;;;11.10;5.63;;;11.80;99.90;;;;;;5075963;28;20078;-75
2023/10/21 03:10:00;;;;;;;8.68;5.43;;;11.80;99.90;;;;;;5076606;28;20037;-75
2023/10/21 03:12:26;;;;;;;10.40;6.07;;;11.80;99.90;;;;;;5076292;28;20032;-75
2023/10/21 03:14:52;;;;;;;10.13;5.82;;;11.80;99.90;;;;;;5076244;28;20484;-76
2023/10/21 03:17:19;;;;;;;10.40;6.18;;;11.90;99.90;;;;;;5076168;28;20115;-76
2023/10/21 03:19:45;;;;;;;6.88;5.72;;;11.80;99.90;;;;;;5076777;28;20478;-75
2023/10/21 03:22:10;;;;;;;6.55;5.20;;;11.90;99.90;;;;;;5076529;28;20114;-76
2023/10/21 03:24:36;;;;;;;7.63;5.90;;;11.90;99.90;;;;;;5075959;28;20056;-75
2023/10/21 03:27:02;;;;;;;6.80;5.40;;;11.80;99.90;;;;;;5076593;28;20047;-75
2023/10/21 03:29:27;;;;;;;8.45;6.00;;;11.80;99.90;;;;;;5075336;28;20017;-76
2023/10/21 03:31:53;;;;;;;9.13;6.45;;;11.80;99.90;;;;;;5076100;28;20031;-76
2023/10/21 03:34:18;;;;;;;7.45;5.72;;;11.90;99.90;;;;;;5076194;28;20047;-76
2023/10/21 03:36:45;;;;;;;9.80;5.78;;;11.80;99.90;;;;;;5076296;28;20489;-76
2023/10/21 03:39:11;;;;;;;8.25;5.18;;;11.90;99.90;;;;;;5075615;28;20031;-76
2023/10/21 03:41:37;;;;;;;8.15;5.97;;;11.80;99.90;;;;;;5076337;28;20455;-75
2023/10/21 03:44:03;;;;;;;7.30;5.75;;;11.90;99.90;;;;;;5075447;28;20098;-75
2023/10/21 03:46:30;;;;;;;7.32;5.90;;;11.90;99.90;;;;;;5075977;28;20024;-75
2023/10/21 03:48:56;;;;;;;10.77;6.00;;;11.90;99.90;;;;;;5076153;28;20367;-75
2023/10/21 03:51:21;;;;;;;7.35;5.50;;;11.90;99.90;;;;;;5076098;28;20078;-76
2023/10/21 03:53:48;;;;;;;5.50;4.90;;;11.90;99.90;;;;;;5075843;28;20378;-76
2023/10/21 03:56:14;;;;;;;6.85;5.20;;;11.90;99.90;;;;;;5076034;28;20060;-75
2023/10/21 03:58:41;;;;;;;7.97;5.60;;;11.90;99.90;;;;;;5075977;28;20032;-76
2023/10/21 04:01:07;;;;;;;8.40;6.13;;;12.00;99.90;;;;;;5074938;28;20017;-75
2023/10/21 04:03:33;;;;;;;7.32;5.25;;;12.00;99.90;;;;;;5075311;28;20036;-75
2023/10/21 04:05:59;;;;;;;12.40;6.50;;;12.00;99.90;;;;;;5074989;28;20428;-76
2023/10/21 04:08:26;;;;;;;9.93;5.38;;;12.00;99.90;;;;;;5075448;28;20032;-76
2023/10/21 04:10:52;;;;;;;9.73;6.28;;;12.00;99.90;;;;;;5075380;28;20020;-76
2023/10/21 04:13:18;;;;;;;9.27;5.93;;;12.00;99.90;;;;;;5075588;28;20028;-76
2023/10/21 04:15:44;;;;;;;11.98;6.15;;;12.10;99.90;;;;;;5075263;28;20381;-75
2023/10/21 04:18:10;;;;;;;10.13;5.60;;;12.10;99.90;;;;;;5075347;28;20031;-76
2023/10/21 04:20:36;;;;;;;9.73;5.50;;;12.10;99.90;;;;;;5075154;28;20533;-76
2023/10/21 04:23:02;;;;;;;8.38;6.00;;;12.10;99.90;;;;;;5075290;28;20029;-75
2023/10/21 04:25:28;;;;;;;8.30;6.15;;;12.10;99.90;;;;;;5074403;28;20478;-75
2023/10/21 04:27:55;;;;;;;8.88;6.72;;;12.20;99.90;;;;;;5074450;28;20028;-75
2023/10/21 04:30:22;;;;;;;10.95;6.97;;;12.20;99.90;;;;;;5075283;28;20048;-75
2023/10/21 04:32:48;;;;;;;27.27;9.05;;;12.10;99.90;;;;;;5074679;28;20024;-75
2023/10/21 04:35:13;;;;;;;15.65;8.65;;;12.20;99.90;;;;;;5075301;28;20028;-75
2023/10/21 04:37:39;;;;;;;13.55;8.80;;;12.20;99.90;;;;;;5075013;28;20131;-75
2023/10/21 04:40:05;;;;;;;12.15;8.88;;;12.20;99.90;;;;;;5075116;28;20040;-75
2023/10/21 04:42:31;;;;;;;14.70;9.07;;;12.20;99.90;;;;;;5075230;28;20027;-75
2023/10/21 04:44:57;;;;;;;12.18;9.30;;;12.20;99.90;;;;;;5074142;28;20053;-75
2023/10/21 04:47:22;;;;;;;17.27;10.13;;;12.20;99.90;;;;;;5075110;28;20024;-75
2023/10/21 04:49:48;;;;;;;13.93;10.23;;;12.20;99.90;;;;;;5074002;28;20090;-76
2023/10/21 04:52:14;;;;;;;18.92;10.68;;;12.30;99.90;;;;;;5075049;28;20016;-75
2023/10/21 04:54:42;;;;;;;14.75;10.32;;;12.30;99.90;;;;;;5075145;28;20483;-75
2023/10/21 04:57:08;;;;;;;15.15;10.57;;;12.20;99.90;;;;;;5074757;28;20028;-75
2023/10/21 04:59:34;;;;;;;19.65;10.68;;;12.20;99.90;;;;;;5074942;28;20475;-76
2023/10/21 05:01:59;;;;;;;13.77;10.80;;;12.20;99.90;;;;;;5074441;28;20043;-76
2023/10/21 05:04:25;;;;;;;14.32;9.82;;;12.20;99.90;;;;;;5074469;28;20020;-76
2023/10/21 05:06:50;;;;;;;15.88;10.60;;;12.20;99.90;;;;;;5074324;28;20115;-76
2023/10/21 05:09:16;;;;;;;14.60;10.40;;;12.20;99.90;;;;;;5074635;28;20055;-76
2023/10/21 05:11:42;;;;;;;11.85;9.10;;;12.20;99.90;;;;;;5074269;28;20046;-75
2023/10/21 05:14:08;;;;;;;12.85;10.18;;;12.20;99.90;;;;;;5074473;28;20029;-75
2023/10/21 05:16:33;;;;;;;15.88;11.07;;;12.20;99.90;;;;;;5074549;28;20028;-75
2023/10/21 05:18:59;;;;;;;14.38;11.07;;;12.20;99.90;;;;;;5073376;28;20029;-76
2023/10/21 05:21:24;;;;;;;16.00;11.60;;;12.10;99.90;;;;;;5074193;28;20033;-76
2023/10/21 05:23:50;;;;;;;19.25;11.90;;;12.10;99.90;;;;;;5074389;28;20035;-76
2023/10/21 05:26:18;;;;;;;20.67;12.82;;;12.10;99.90;;;;;;5073904;28;20025;-76
2023/10/21 05:28:44;;;;;;;21.33;13.05;;;12.10;99.90;;;;;;5073890;28;20029;-76
2023/10/21 05:31:10;;;;;;;20.20;13.85;;;12.10;99.90;;;;;;5073725;28;20035;-76
2023/10/21 05:33:35;;;;;;;21.05;12.90;;;12.10;99.90;;;;;;5074356;28;20054;-76
2023/10/21 05:36:01;;;;;;;21.02;14.20;;;12.20;99.90;;;;;;5073878;28;20025;-76
2023/10/21 05:38:26;;;;;;;20.92;14.07;;;12.20;99.90;;;;;;5073781;28;20021;-76
2023/10/21 05:40:52;;;;;;;23.55;14.35;;;12.30;99.90;;;;;;5074154;28;20120;-76
2023/10/21 05:43:17;;;;;;;27.40;15.02;;;12.30;99.90;;;;;;5073621;28;20115;-75
2023/10/21 05:45:43;;;;;;;29.17;15.82;;;12.30;99.90;;;;;;5073379;28;20497;-76
2023/10/21 05:48:10;;;;;;;28.85;15.93;;;12.40;99.90;;;;;;5073959;28;20039;-76
2023/10/21 05:50:37;;;;;;;25.95;15.48;;;12.40;99.90;;;;;;5073965;28;20375;-76
2023/10/21 05:53:03;;;;;;;27.35;15.40;;;12.40;99.90;;;;;;5074053;28;20025;-76
2023/10/21 05:55:29;;;;;;;31.20;17.08;;;12.40;99.90;;;;;;5073768;28;20382;-76
2023/10/21 05:57:55;;;;;;;26.88;15.85;;;12.50;99.90;;;;;;5073984;28;20025;-76
2023/10/21 06:00:21;;;;;;;32.55;17.55;;;12.40;99.90;;;;;;5074108;28;20111;-75
2023/10/21 06:02:46;;;;;;;32.97;18.25;;;12.50;99.90;;;;;;5078125;28;20032;-75
2023/10/21 06:05:14;;;;;;;30.42;17.27;;;12.50;99.90;;;;;;5077362;28;20059;-76
2023/10/21 06:07:40;;;;;;;39.03;19.88;;;12.50;99.90;;;;;;5076852;28;20025;-76
2023/10/21 06:10:07;;;;;;;33.25;19.08;;;12.50;99.90;;;;;;5077231;28;20078;-76
2023/10/21 06:12:33;;;;;;;38.88;19.40;;;12.50;99.90;;;;;;5078025;28;20028;-76
2023/10/21 06:14:59;;;;;;;28.52;17.17;;;12.50;99.90;;;;;;5077119;28;20033;-76
2023/10/21 06:17:25;;;;;;;28.40;15.85;;;12.50;99.90;;;;;;5076625;28;20027;-76
2023/10/21 06:19:51;;;;;;;28.42;14.68;;;12.60;99.90;;;;;;5076944;28;20028;-75
2023/10/21 06:22:17;;;;;;;25.65;13.65;;;12.60;99.90;;;;;;5077341;28;20028;-76
2023/10/21 06:24:43;;;;;;;29.98;16.00;;;12.60;99.90;;;;;;5077606;28;20355;-76
2023/10/21 06:27:09;;;;;;;35.35;18.92;;;12.60;99.90;;;;;;5077262;28;20103;-75
2023/10/21 06:29:35;;;;;;;37.40;19.75;;;12.60;99.90;;;;;;5077370;28;20427;-76
2023/10/21 06:32:00;;;;;;;40.22;19.90;;;12.60;99.90;;;;;;5077045;28;20032;-76
2023/10/21 06:34:26;;;;;;;34.67;19.27;;;12.60;99.90;;;;;;5076709;28;20032;-75
2023/10/21 06:36:51;;;;;;;36.58;19.20;;;12.70;99.90;;;;;;5077128;28;20056;-76
2023/10/21 06:39:18;;;;;;;34.35;19.13;;;12.70;99.90;;;;;;5077426;28;20039;-75
2023/10/21 06:41:44;;;;;;;35.08;17.45;;;12.70;99.90;;;;;;5077412;28;20034;-76
2023/10/21 06:44:10;;;;;;;23.35;14.07;;;12.70;99.90;;;;;;5076525;28;20552;-75
2023/10/21 06:46:35;;;;;;;21.88;13.80;;;12.90;99.90;;;;;;5077076;28;20029;-75
2023/10/21 06:49:01;;;;;;;26.27;13.20;;;13.00;99.90;;;;;;5076980;28;20028;-76
2023/10/21 06:51:27;;;;;;;22.30;14.07;;;13.00;99.90;;;;;;5077272;28;20028;-76
2023/10/21 06:53:53;;;;;;;25.08;15.10;;;13.10;99.90;;;;;;5076504;28;20531;-75
2023/10/21 06:56:18;;;;;;;21.67;12.93;;;13.10;99.90;;;;;;5077207;28;20020;-76
2023/10/21 06:58:47;;;;;;;19.38;12.55;;;13.20;99.90;;;;;;5077079;28;20111;-76
2023/10/21 07:01:13;;;;;;;20.52;12.48;;;13.20;99.90;;;;;;5077013;28;20021;-76
2023/10/21 07:03:39;;;;;;;24.17;11.85;;;13.20;99.90;;;;;;5076343;28;20035;-76
2023/10/21 07:06:05;;;;;;;23.38;11.65;;;13.20;99.90;;;;;;5076351;28;20470;-76
2023/10/21 07:08:31;;;;;;;20.52;11.63;;;13.20;99.90;;;;;;5076440;28;20454;-76
2023/10/21 07:10:57;;;;;;;19.42;11.63;;;13.30;99.90;;;;;;5076271;28;20024;-76
2023/10/21 07:13:22;;;;;;;15.30;10.73;;;13.40;99.90;;;;;;5075238;28;20442;-76
2023/10/21 07:15:48;;;;;;;17.75;11.73;;;13.50;99.90;;;;;;5076433;28;20040;-76
2023/10/21 07:18:15;;;;;;;18.52;10.98;;;13.50;99.90;;;;;;5076421;28;20040;-76
2023/10/21 07:20:40;;;;;;;18.95;11.95;;;13.60;99.90;;;;;;5076172;28;20027;-76
2023/10/21 07:23:08;;;;;;;19.48;10.48;;;13.60;99.90;;;;;;5076392;28;20378;-75
2023/10/21 07:25:36;;;;;;;19.58;11.27;;;13.70;99.90;;;;;;5076321;28;20031;-75
2023/10/21 07:28:02;;;;;;;14.48;10.40;;;13.70;99.90;;;;;;5075729;28;20078;-75
2023/10/21 07:30:28;;;;;;;15.77;9.48;;;13.90;99.90;;;;;;5076474;28;20027;-76
2023/10/21 07:32:54;;;;;;;19.27;12.07;;;14.30;99.90;;;;;;5076006;28;20020;-76
2023/10/21 07:35:20;;;;;;;19.25;12.52;;;13.60;99.90;;;;;;5076067;28;20482;-76
2023/10/21 07:37:46;;;;;;;19.40;11.18;;;16.20;99.90;;;;;;5076393;28;20537;-76
2023/10/21 07:40:12;;;;;;;12.07;8.52;;;16.40;99.90;;;;;;5076372;28;20528;-76
2023/10/21 07:42:38;;;;;;;10.90;7.05;;;16.10;99.90;;;;;;5075745;28;20032;-76
2023/10/21 07:45:04;;;;;;;10.50;6.88;;;15.30;99.90;;;;;;5075076;28;20044;-76
2023/10/21 07:47:30;;;;;;;9.52;6.55;;;15.70;99.90;;;;;;5075900;28;20056;-75
2023/10/21 07:49:55;;;;;;;7.60;5.75;;;15.00;99.90;;;;;;5076092;28;20024;-76
2023/10/21 07:52:21;;;;;;;8.27;5.40;;;14.90;99.90;;;;;;5075558;28;20050;-75
2023/10/21 07:54:47;;;;;;;5.05;4.65;;;14.70;99.90;;;;;;5075820;28;20470;-75
2023/10/21 07:57:13;;;;;;;5.32;4.13;;;14.70;99.90;;;;;;5075978;28;20470;-75
2023/10/21 07:59:39;;;;;;;4.82;3.75;;;14.50;99.90;;;;;;5075122;28;20512;-75
2023/10/21 08:02:05;;;;;;;5.60;3.40;;;14.40;99.90;;;;;;5075655;28;20066;-76
2023/10/21 08:04:31;;;;;;;3.97;3.35;;;14.50;99.90;;;;;;5075123;28;20024;-75
2023/10/21 08:06:57;;;;;;;5.78;2.65;;;14.80;99.90;;;;;;5075436;28;20454;-76
2023/10/21 08:09:23;;;;;;;5.93;2.53;;;15.30;99.90;;;;;;5075688;28;20151;-76
2023/10/21 08:11:48;;;;;;;4.60;2.38;;;15.30;99.90;;;;;;5075428;28;20029;-76
2023/10/21 08:14:14;;;;;;;2.22;1.90;;;15.40;99.90;;;;;;5075386;28;20036;-76
2023/10/21 08:16:40;;;;;;;1.60;1.50;;;15.40;99.90;;;;;;5075077;28;20052;-75
2023/10/21 08:19:06;;;;;;;2.45;1.75;;;15.00;99.90;;;;;;5075570;28;20121;-76
2023/10/21 08:21:33;;;;;;;1.70;1.13;;;15.80;99.90;;;;;;5075201;28;20036;-75
2023/10/21 08:24:02;;;;;;;4.93;1.50;;;15.50;99.90;;;;;;5074059;28;20059;-75
2023/10/21 08:26:28;;;;;;;2.50;1.40;;;15.70;99.90;;;;;;5075090;28;20071;-75
2023/10/21 08:28:54;;;;;;;4.85;1.20;;;15.60;99.90;;;;;;5075008;28;20047;-75
2023/10/21 08:31:20;;;;;;;3.00;0.98;;;15.60;99.90;;;;;;5075242;28;20108;-75
2023/10/21 08:33:46;;;;;;;1.10;0.88;;;15.50;99.90;;;;;;5074609;28;20423;-75
2023/10/21 08:36:19;;;;;;;1.27;0.90;;;15.60;99.90;;;;;;5074665;28;20051;-75
2023/10/21 08:38:46;;;;;;;2.42;1.10;;;15.70;99.90;;;;;;5075166;28;20028;-75
2023/10/21 08:41:12;;;;;;;2.72;0.90;;;15.70;99.90;;;;;;5074605;28;20497;-75
2023/10/21 08:43:45;;;;;;;3.65;1.00;;;15.70;99.90;;;;;;5074276;28;20094;-76
2023/10/21 08:46:11;;;;;;;2.67;0.90;;;16.10;99.90;;;;;;5074718;28;20040;-76
2023/10/21 08:48:37;;;;;;;2.10;0.63;;;17.20;99.90;;;;;;5075085;28;20043;-76
2023/10/21 08:51:08;;;;;;;2.88;0.70;;;17.10;99.90;;;;;;5074948;28;20089;-75
2023/10/21 08:53:36;;;;;;;1.00;0.50;;;16.90;99.90;;;;;;5074469;28;20028;-75
2023/10/21 08:56:01;;;;;;;1.27;0.55;;;17.00;99.90;;;;;;5074457;28;20519;-71
2023/10/21 08:58:28;;;;;;;1.23;0.57;;;16.90;99.90;;;;;;5074782;28;20032;-72
2023/10/21 09:00:54;;;;;;;2.65;0.40;;;16.90;99.90;;;;;;5074350;28;20028;-74
2023/10/21 09:03:20;;;;;;;0.40;0.40;;;17.30;99.90;;;;;;5074723;28;20036;-74
2023/10/21 09:06:03;;;;;;;1.77;0.60;;;17.40;99.90;;;;;;5074234;28;20119;-75
2023/10/21 09:08:31;;;;;;;1.45;0.52;;;17.30;99.90;;;;;;5074742;28;20033;-75
2023/10/21 09:10:59;;;;;;;1.00;0.50;;;17.10;88.70;;;;;;5074627;28;20478;-75
2023/10/21 09:13:30;;;;;;;0.60;0.40;;;17.30;73.90;;;;;;5074581;28;20462;-74
2023/10/21 09:15:55;;;;;;;2.38;0.60;;;17.60;23.30;;;;;;5074503;28;20030;-75
2023/10/21 09:18:21;;;;;;;1.63;0.30;;;17.40;16.20;;;;;;5074339;28;20463;-75
2023/10/21 09:20:49;;;;;;;0.85;0.50;;;17.60;5.60;;;;;;5073940;28;20037;-75
2023/10/21 09:23:14;;;;;;;1.40;0.40;;;18.30;1.00;;;;;;5074523;28;20036;-75
2023/10/21 09:25:47;;;;;;;1.90;0.40;;;18.40;1.00;;;;;;5073772;28;20040;-74
2023/10/21 09:28:20;;;;;;;1.45;0.25;;;18.50;1.00;;;;;;5074346;28;20481;-74
2023/10/21 09:30:56;;;;;;;0.75;0.40;;;18.30;1.00;;;;;;5074132;28;20037;-74
2023/10/21 09:33:21;;;;;;;0.20;0.20;;;17.60;1.00;;;;;;5073814;28;20024;-73
2023/10/21 09:36:00;;;;;;;0.30;0.30;;;17.10;1.00;;;;;;5073952;28;20035;-74
2023/10/21 09:38:26;;;;;;;0.63;0.40;;;17.30;1.00;;;;;;5074107;28;20458;-73
2023/10/21 09:40:52;;;;;;;0.88;0.50;;;17.60;1.00;;;;;;5073172;28;20070;-74
2023/10/21 09:43:18;;;;;;;0.95;0.35;;;18.60;1.00;;;;;;5073579;28;20029;-74
2023/10/21 09:45:46;;;;;;;1.65;0.43;;;17.00;1.00;;;;;;5073389;28;20049;-74
2023/10/21 09:48:12;;;;;;;1.35;0.55;;;16.80;1.00;;;;;;5073897;28;20017;-74
2023/10/21 09:50:38;;;;;;;0.73;0.40;;;16.80;1.00;;;;;;5073725;28;20020;-74
2023/10/21 09:53:15;;;;;;;0.85;0.63;;;16.40;1.00;;;;;;5074110;28;20421;-74
2023/10/21 09:55:41;;;;;;;2.83;0.82;;;16.30;1.00;;;;;;5073853;28;20025;-74
2023/10/21 09:58:08;;;;;;;0.77;0.60;;;16.10;1.00;;;;;;5073891;28;20029;-74
2023/10/21 10:00:35;;;;;;;0.65;0.50;;;15.90;1.00;;;;;;5073067;28;20033;-74
2023/10/21 10:03:01;;;;;;;0.82;0.55;;;15.80;1.00;;;;;;5073588;28;20028;-74
2023/10/21 10:05:27;;;;;;;1.17;0.52;;;16.00;1.00;;;;;;5073834;28;20447;-74
2023/10/21 10:07:53;;;;;;;0.57;0.45;;;16.50;1.00;;;;;;5073650;28;20103;-74
2023/10/21 10:10:23;;;;;;;0.50;0.50;;;17.30;1.00;;;;;;5073367;28;20111;-74
2023/10/21 10:12:53;;;;;;;1.48;0.50;;;17.50;99.90;;;;;;5073575;28;20033;-74
2023/10/21 10:18:09;;;;;;;0.55;0.40;;;17.90;99.90;;;;;;5153158;27;20397;-74
2023/10/21 10:20:44;;;;;;;0.90;0.47;;;18.20;99.90;;;;;;5152621;27;20484;-74
2023/10/21 10:23:09;;;;;;;0.50;0.40;;;18.10;99.90;;;;;;5153204;27;20106;-74
2023/10/21 10:25:39;;;;;;;0.85;0.50;;;18.30;99.90;;;;;;5152271;27;20053;-74
2023/10/21 10:28:16;;;;;;;1.05;0.40;;;18.60;64.10;;;;;;5153239;27;20031;-73
2023/10/21 10:30:44;;;;;;;1.50;0.50;;;18.60;29.20;;;;;;5153166;27;20468;-75
2023/10/21 10:33:12;;;;;;;1.20;0.40;;;18.90;1.00;;;;;;5152818;27;20026;-74
2023/10/21 10:35:55;;;;;;;1.50;0.40;;;18.90;99.90;;;;;;5152568;27;20110;-75
2023/10/21 10:41:18;;;;;;;1.10;0.25;;;18.80;99.90;;;;;;5071421;28;20386;-75
2023/10/21 10:43:51;;;;;;;2.20;0.60;;;18.80;99.90;;;;;;5071574;28;20475;-75
2023/10/21 10:46:19;;;;;;;;;;;18.50;99.90;;;;;;5071678;28;20120;-75
2023/10/21 10:48:46;;;;;;;1.42;0.43;;;18.60;98.40;;;;;;5071238;28;19904;-74
2023/10/21 10:51:14;;;;;;;3.60;0.70;;;18.40;54.30;;;;;;5071146;28;20021;-74
2023/10/21 10:53:40;;;;;;;0.60;0.60;;;18.10;99.90;;;;;;5070681;28;20501;-74
2023/10/21 10:56:09;;;;;;;1.02;0.40;;;18.20;99.90;;;;;;5071104;28;20032;-75
2023/10/21 10:58:35;;;;;;;2.35;0.63;;;18.20;1.00;;;;;;5070603;28;20017;-75
2023/10/21 11:01:01;;;;;;;1.45;0.50;;;17.90;99.90;;;;;;5070833;28;20154;-74
2023/10/21 11:03:28;;;;;;;1.88;0.50;;;17.80;1.00;;;;;;5070977;28;20029;-74
2023/10/21 11:05:55;;;;;;;2.60;0.65;;;17.80;1.00;;;;;;5070802;28;20032;-75
2023/10/21 11:08:21;;;;;;;0.88;0.45;;;17.40;99.90;;;;;;5070725;28;20489;-75
2023/10/21 11:10:47;;;;;;;3.42;0.95;;;17.30;1.00;;;;;;5070888;28;20071;-74
2023/10/21 11:13:13;;;;;;;1.58;0.60;;;17.00;69.00;;;;;;5070637;28;20025;-74
2023/10/21 11:15:44;;;;;;;2.95;0.82;;;17.10;99.90;;;;;;5070234;28;20028;-74
2023/10/21 11:18:11;;;;;;;1.35;0.45;;;16.80;99.90;;;;;;5070571;28;20025;-74
2023/10/21 11:20:47;;;;;;;1.20;0.52;;;16.80;99.90;;;;;;5070371;28;20471;-75
2023/10/21 11:23:12;;;;;;;2.67;0.70;;;17.00;89.10;;;;;;5069924;28;20063;-74
2023/10/21 11:25:40;;;;;;;3.03;0.63;;;17.00;1.00;;;;;;5070682;28;20083;-74
2023/10/21 11:28:06;;;;;;;3.08;0.70;;;17.10;99.90;;;;;;5070512;28;20024;-74
2023/10/21 11:30:33;;;;;;;1.08;0.65;;;17.10;1.00;;;;;;5070356;28;20086;-74
2023/10/21 11:33:09;;;;;;;1.55;0.55;;;17.20;1.00;;;;;;5070563;28;20533;-74
2023/10/21 11:35:38;;;;;;;1.30;0.75;;;17.30;99.90;;;;;;5070572;28;20466;-74
2023/10/21 11:38:04;;;;;;;2.35;0.90;;;17.30;99.90;;;;;;5070317;28;20112;-74
2023/10/21 11:40:30;;;;;;;1.63;0.60;;;17.30;99.90;;;;;;5068984;28;20045;-73
2023/10/21 11:43:08;;;;;;;2.22;0.60;;;17.20;62.80;;;;;;5070028;28;20033;-73
2023/10/21 11:45:34;;;;;;;1.30;0.50;;;17.20;1.00;;;;;;5069715;28;20103;-74
2023/10/21 11:48:01;;;;;;;3.22;0.65;;;17.00;60.80;;;;;;5069512;28;20479;-71
2023/10/21 11:50:33;;;;;;;2.90;0.73;;;17.10;99.90;;;;;;5066749;28;20368;-73
2023/10/21 11:53:04;;;;;;;0.70;0.60;;;17.50;1.00;;;;;;5056928;28;20473;-72
2023/10/21 11:56:53;;;;;;;2.35;0.60;;;16.90;1.00;;;;;;5056805;28;20075;-73
2023/10/21 12:18:12;;;;;;;3.75;0.75;;;17.90;99.90;;;;;;5055392;28;20032;-73
2023/10/21 12:32:25;;;;;;;1.55;0.52;;;17.40;99.90;;;;;;5055508;28;20473;-73
2023/10/21 12:39:38;;;;;;;1.42;0.50;;;17.10;1.00;;;;;;5054677;28;20052;-73
2023/10/21 12:42:40;;;;;;;1.23;0.68;;;17.10;99.90;;;;;;5055929;28;20018;-72
2023/10/21 12:44:54;;;;;;;2.42;0.57;;;17.00;99.90;;;;;;5054833;28;20025;-72
2023/10/21 12:47:19;;;;;;;5.15;1.10;;;17.00;99.90;;;;;;5055986;28;20025;-73
2023/10/21 12:49:48;;;;;;;2.90;0.75;;;17.10;96.00;;;;;;5055849;28;20418;-73
2023/10/21 12:52:15;;;;;;;2.80;0.60;;;17.10;1.00;;;;;;5055138;28;20024;-73
2023/10/21 12:54:40;;;;;;;1.20;0.60;;;17.10;99.90;;;;;;5055484;28;20470;-73
2023/10/21 12:57:08;;;;;;;1.38;0.60;;;17.10;64.30;;;;;;5055406;28;20039;-73
2023/10/21 12:59:33;;;;;;;3.40;0.73;;;17.20;1.00;;;;;;5055433;28;20029;-73
2023/10/21 13:01:59;;;;;;;1.63;0.63;;;17.20;99.90;;;;;;5054746;28;20530;-73
2023/10/21 13:04:24;;;;;;;1.48;0.70;;;17.40;99.90;;;;;;5054734;28;20036;-73
2023/10/21 13:06:50;;;;;;;4.22;1.02;;;17.40;26.70;;;;;;5055168;28;20060;-73
2023/10/21 13:09:31;;;;;;;3.10;0.88;;;17.50;99.90;;;;;;5054997;28;20115;-72
2023/10/21 13:11:56;;;;;;;4.35;0.90;;;17.30;1.00;;;;;;5055176;28;20025;-72
2023/10/21 13:14:23;;;;;;;3.10;1.02;;;17.30;1.00;;;;;;5055357;28;20028;-72
2023/10/21 13:16:49;;;;;;;4.50;1.30;;;17.50;1.00;;;;;;5054865;28;20021;-72
2023/10/21 13:19:15;;;;;;;2.08;0.73;;;17.50;1.00;;;;;;5055243;28;20356;-72
2023/10/21 13:21:41;;;;;;;7.32;1.35;;;17.40;99.90;;;;;;5055034;28;20028;-73